createdAt,value
2019-03-30T00:02:59.062Z,101364.92
2019-03-30T00:06:00.945Z,101358.02
2019-03-30T00:09:06.976Z,101353.20
2019-03-30T00:12:09.296Z,101357.81
2019-03-30T00:15:11.181Z,101359.48
2019-03-30T00:18:13.108Z,101363.31
2019-03-30T00:21:14.992Z,101362.48
2019-03-30T00:24:16.907Z,101357.50
2019-03-30T00:27:18.896Z,101357.83
2019-03-30T00:30:20.840Z,101362.41
2019-03-30T00:33:22.694Z,101360.33
2019-03-30T00:36:24.645Z,101348.72
2019-03-30T00:39:26.535Z,101354.09
2019-03-30T00:42:28.503Z,101346.53
2019-03-30T00:45:30.546Z,101360.16
2019-03-30T00:48:32.516Z,101354.56
2019-03-30T00:51:34.351Z,101357.96
2019-03-30T00:54:36.321Z,101356.88
2019-03-30T00:57:38.271Z,101356.08
2019-03-30T01:00:40.227Z,101352.25
2019-03-30T01:03:42.117Z,101354.88
2019-03-30T01:06:44.124Z,101347.38
2019-03-30T01:09:46.025Z,101345.37
2019-03-30T01:12:47.981Z,101339.32
2019-03-30T01:15:49.861Z,101338.15
2019-03-30T01:18:51.862Z,101341.08
2019-03-30T01:21:56.185Z,101341.88
2019-03-30T01:24:57.712Z,101334.84
2019-03-30T01:27:59.745Z,101339.31
2019-03-30T01:31:01.711Z,101333.95
2019-03-30T01:34:03.581Z,101340.21
2019-03-30T01:37:05.550Z,101340.86
2019-03-30T01:40:08.066Z,101335.73
2019-03-30T01:43:10.014Z,101335.24
2019-03-30T01:46:12.818Z,101326.14
2019-03-30T01:49:14.781Z,101322.25
2019-03-30T01:52:16.706Z,101323.09
2019-03-30T01:55:18.711Z,101320.77
2019-03-30T01:58:20.768Z,101322.13
2019-03-30T02:01:22.727Z,101325.55
2019-03-30T02:04:24.588Z,101318.82
2019-03-30T02:07:26.516Z,101324.64
2019-03-30T02:10:43.224Z,101320.57
2019-03-30T02:13:45.167Z,101323.78
2019-03-30T02:16:47.060Z,101329.17
2019-03-30T02:19:49.066Z,101320.98
2019-03-30T02:22:50.987Z,101317.36
2019-03-30T02:25:52.946Z,101313.77
2019-03-30T02:28:54.935Z,101320.47
2019-03-30T02:31:56.858Z,101316.71
2019-03-30T02:34:58.747Z,101317.84
2019-03-30T02:38:00.683Z,101316.80
2019-03-30T02:41:02.664Z,101312.07
2019-03-30T02:44:04.586Z,101306.03
2019-03-30T02:47:06.976Z,101309.13
2019-03-30T02:50:08.912Z,101306.08
2019-03-30T02:53:10.752Z,101304.06
2019-03-30T02:56:12.723Z,101295.94
2019-03-30T02:59:14.663Z,101290.51
2019-03-30T03:02:16.605Z,101294.58
2019-03-30T03:05:18.459Z,101287.56
2019-03-30T03:08:20.385Z,101277.81
2019-03-30T03:11:22.285Z,101281.54
2019-03-30T03:14:24.261Z,101277.81
2019-03-30T03:17:26.182Z,101276.20
2019-03-30T03:20:28.108Z,101282.02
2019-03-30T03:23:29.985Z,101276.72
2019-03-30T03:26:31.901Z,101268.98
2019-03-30T03:29:34.029Z,101270.02
2019-03-30T03:32:35.988Z,101269.55
2019-03-30T03:35:37.864Z,101264.78
2019-03-30T03:38:39.784Z,101263.64
2019-03-30T03:41:41.672Z,101263.03
2019-03-30T03:44:43.635Z,101258.08
2019-03-30T03:47:45.679Z,101252.86
2019-03-30T03:50:51.237Z,101251.68
2019-03-30T03:53:53.335Z,101251.37
2019-03-30T03:56:56.723Z,101245.30
2019-03-30T04:00:01.718Z,101246.25
2019-03-30T04:03:03.794Z,101241.91
2019-03-30T04:06:05.779Z,101250.04
2019-03-30T04:09:07.718Z,101247.09
2019-03-30T04:12:11.986Z,101247.91
2019-03-30T04:15:24.947Z,101255.23
2019-03-30T04:18:26.867Z,101248.84
2019-03-30T04:21:42.892Z,101256.55
2019-03-30T04:24:32.582Z,101247.91
2019-03-30T04:27:34.496Z,101247.31
2019-03-30T04:30:36.504Z,101243.64
2019-03-30T04:33:38.525Z,101238.98
2019-03-30T04:36:40.415Z,101233.54
2019-03-30T04:39:42.427Z,101236.38
2019-03-30T04:42:44.268Z,101235.34
2019-03-30T04:45:46.161Z,101226.28
2019-03-30T04:48:48.614Z,101225.72
2019-03-30T04:51:57.365Z,101227.77
2019-03-30T04:54:54.434Z,101233.08
2019-03-30T04:57:57.850Z,101233.47
2019-03-30T05:01:00.183Z,101230.45
2019-03-30T05:04:02.101Z,101221.67
2019-03-30T05:07:03.976Z,101225.52
2019-03-30T05:10:06.513Z,101218.30
2019-03-30T05:13:08.380Z,101220.02
2019-03-30T05:16:10.300Z,101215.78
2019-03-30T05:19:12.184Z,101212.38
2019-03-30T05:22:16.611Z,101212.17
2019-03-30T05:25:17.902Z,101217.92
2019-03-30T05:28:19.817Z,101209.11
2019-03-30T05:31:21.900Z,101210.85
2019-03-30T05:34:23.815Z,101216.55
2019-03-30T05:37:25.686Z,101222.28
2019-03-30T05:40:27.586Z,101224.60
2019-03-30T05:43:29.428Z,101228.32
2019-03-30T05:46:31.387Z,101226.37
2019-03-30T05:49:33.342Z,101228.83
2019-03-30T05:52:35.809Z,101232.81
2019-03-30T05:55:37.916Z,101231.75
2019-03-30T05:58:39.820Z,101230.81
2019-03-30T06:01:41.755Z,101232.34
2019-03-30T06:04:43.749Z,101227.05
2019-03-30T06:07:45.634Z,101229.98
2019-03-30T06:10:47.551Z,101225.31
2019-03-30T06:13:49.412Z,101221.00
2019-03-30T06:16:52.167Z,101223.91
2019-03-30T06:19:54.207Z,101224.11
2019-03-30T06:22:56.230Z,101219.22
2019-03-30T06:25:59.590Z,101214.23
2019-03-30T06:29:01.520Z,101215.51
2019-03-30T06:32:03.663Z,101211.66
2019-03-30T06:35:05.769Z,101208.09
2019-03-30T06:38:07.665Z,101204.27
2019-03-30T06:41:09.628Z,101202.92
2019-03-30T06:44:11.550Z,101202.94
2019-03-30T06:47:13.505Z,101201.50
2019-03-30T06:50:16.313Z,101198.70
2019-03-30T06:53:18.434Z,101189.87
2019-03-30T06:56:20.466Z,101194.72
2019-03-30T06:59:22.553Z,101190.25
2019-03-30T07:02:25.317Z,101186.37
2019-03-30T07:05:27.339Z,101194.27
2019-03-30T07:08:31.508Z,101188.80
2019-03-30T07:11:37.067Z,101184.00
2019-03-30T07:14:40.976Z,101174.91
2019-03-30T07:17:47.018Z,101181.60
2019-03-30T07:20:48.916Z,101181.22
2019-03-30T07:23:50.918Z,101180.91
2019-03-30T07:26:52.946Z,101183.66
2019-03-30T07:29:55.014Z,101183.98
2019-03-30T07:32:57.085Z,101180.36
2019-03-30T07:35:59.122Z,101180.69
2019-03-30T07:39:01.187Z,101173.98
2019-03-30T07:42:03.124Z,101179.64
2019-03-30T07:45:05.734Z,101177.18
2019-03-30T07:48:07.669Z,101177.08
2019-03-30T07:51:09.805Z,101180.18
2019-03-30T07:54:12.150Z,101180.62
2019-03-30T07:57:17.080Z,101178.31
2019-03-30T08:00:18.661Z,101177.66
2019-03-30T08:03:20.651Z,101175.82
2019-03-30T08:06:22.719Z,101178.34
2019-03-30T08:09:24.646Z,101175.19
2019-03-30T08:12:27.103Z,101164.55
2019-03-30T08:15:29.055Z,101170.48
2019-03-30T08:18:31.144Z,101157.03
2019-03-30T08:21:33.776Z,101158.30
2019-03-30T08:24:36.229Z,101150.11
2019-03-30T08:27:38.484Z,101152.59
2019-03-30T08:30:40.460Z,101146.85
2019-03-30T08:33:42.966Z,101143.66
2019-03-30T08:36:44.917Z,101141.75
2019-03-30T08:39:46.891Z,101140.21
2019-03-30T08:42:50.002Z,101132.73
2019-03-30T08:45:51.912Z,101134.21
2019-03-30T08:48:54.277Z,101131.97
2019-03-30T08:51:56.196Z,101134.12
2019-03-30T08:54:58.158Z,101137.08
2019-03-30T08:58:00.430Z,101129.17
2019-03-30T09:01:02.404Z,101129.13
2019-03-30T09:04:04.407Z,101124.13
2019-03-30T09:07:06.375Z,101124.55
2019-03-30T09:10:08.465Z,101122.74
2019-03-30T09:13:10.601Z,101123.11
2019-03-30T09:16:12.498Z,101114.08
2019-03-30T09:19:14.531Z,101112.69
2019-03-30T09:22:16.445Z,101109.00
2019-03-30T09:25:18.768Z,101112.69
2019-03-30T09:28:20.804Z,101103.35
2019-03-30T09:31:23.010Z,101108.31
2019-03-30T09:34:25.048Z,101098.53
2019-03-30T09:37:26.951Z,101099.58
2019-03-30T09:40:28.882Z,101099.83
2019-03-30T09:43:30.845Z,101093.12
2019-03-30T09:46:32.735Z,101093.20
2019-03-30T09:49:37.492Z,101088.17
2019-03-30T09:52:39.438Z,101085.56
2019-03-30T09:55:42.636Z,101069.58
2019-03-30T09:58:44.495Z,101081.95
2019-03-30T10:01:46.422Z,101078.50
2019-03-30T10:04:48.353Z,101078.06
2019-03-30T10:07:50.385Z,101074.43
2019-03-30T10:10:52.335Z,101074.22
2019-03-30T10:13:54.311Z,101065.21
2019-03-30T10:16:57.509Z,101058.36
2019-03-30T10:20:04.710Z,101059.05
2019-03-30T10:23:04.527Z,101054.63
2019-03-30T10:26:06.524Z,101059.80
2019-03-30T10:29:08.723Z,101045.91
2019-03-30T10:32:10.840Z,101045.08
2019-03-30T10:35:12.943Z,101035.12
2019-03-30T10:38:14.909Z,101033.11
2019-03-30T10:41:16.840Z,101038.81
2019-03-30T10:44:18.871Z,101028.96
2019-03-30T10:47:20.858Z,101030.84
2019-03-30T10:50:22.871Z,101019.97
2019-03-30T10:53:24.741Z,101011.58
2019-03-30T10:56:26.699Z,101009.98
2019-03-30T10:59:28.606Z,101007.35
2019-03-30T11:02:30.560Z,101004.36
2019-03-30T11:05:32.488Z,101002.96
2019-03-30T11:08:34.443Z,100997.34
2019-03-30T11:11:36.411Z,100998.05
2019-03-30T11:14:38.405Z,100990.58
2019-03-30T11:17:40.369Z,100983.86
2019-03-30T11:20:42.362Z,100981.23
2019-03-30T11:23:45.485Z,100979.65
2019-03-30T11:26:47.409Z,100966.63
2019-03-30T11:29:49.321Z,100968.09
2019-03-30T11:32:51.381Z,100960.74
2019-03-30T11:35:53.466Z,100960.79
2019-03-30T11:38:55.429Z,100957.14
2019-03-30T11:41:58.557Z,100949.08
2019-03-30T11:45:00.518Z,100947.22
2019-03-30T11:48:02.399Z,100947.05
2019-03-30T11:51:06.149Z,100951.45
2019-03-30T11:54:08.060Z,100948.73
2019-03-30T11:57:10.038Z,100940.78
2019-03-30T12:00:12.170Z,100935.14
2019-03-30T12:03:14.108Z,100928.33
2019-03-30T12:06:16.039Z,100928.03
2019-03-30T12:09:18.099Z,100917.67
2019-03-30T12:12:20.039Z,100910.45
2019-03-30T12:15:21.954Z,100902.36
2019-03-30T12:18:23.856Z,100905.73
2019-03-30T12:21:25.807Z,100897.97
2019-03-30T12:24:27.739Z,100885.55
2019-03-30T12:27:29.705Z,100878.89
2019-03-30T12:30:31.576Z,100881.73
2019-03-30T12:33:33.554Z,100868.78
2019-03-30T12:36:35.705Z,100864.06
2019-03-30T12:39:37.747Z,100854.37
2019-03-30T12:42:39.640Z,100857.41
2019-03-30T12:45:41.608Z,100847.97
2019-03-30T12:48:43.549Z,100851.20
2019-03-30T12:51:45.849Z,100841.77
2019-03-30T12:54:47.731Z,100834.11
2019-03-30T12:57:49.647Z,100830.60
2019-03-30T13:00:54.619Z,100826.95
2019-03-30T13:03:56.604Z,100822.52
2019-03-30T13:06:58.550Z,100818.45
2019-03-30T13:10:00.626Z,100812.84
2019-03-30T13:13:02.528Z,100807.59
2019-03-30T13:16:04.488Z,100805.05
2019-03-30T13:19:06.408Z,100796.73
2019-03-30T13:22:08.348Z,100793.55
2019-03-30T13:25:10.223Z,100784.85
2019-03-30T13:28:12.235Z,100777.39
2019-03-30T13:31:14.125Z,100790.28
2019-03-30T13:34:16.085Z,100773.31
2019-03-30T13:37:20.043Z,100775.20
2019-03-30T13:40:21.996Z,100767.00
2019-03-30T13:43:23.862Z,100771.00
2019-03-30T13:46:25.827Z,100763.80
2019-03-30T13:49:29.632Z,100762.14
2019-03-30T13:52:32.127Z,100760.89
2019-03-30T13:55:34.027Z,100750.70
2019-03-30T13:58:36.707Z,100751.12
2019-03-30T14:01:39.008Z,100747.16
2019-03-30T14:04:40.905Z,100739.30
2019-03-30T14:07:44.611Z,100740.39
2019-03-30T14:10:47.465Z,100734.12
2019-03-30T14:13:49.386Z,100735.57
2019-03-30T14:16:51.354Z,100730.53
2019-03-30T14:19:53.254Z,100729.21
2019-03-30T14:22:55.231Z,100726.43
2019-03-30T14:25:57.107Z,100715.77
2019-03-30T14:28:59.186Z,100712.23
2019-03-30T14:32:01.122Z,100713.27
2019-03-30T14:35:04.522Z,100706.55
2019-03-30T14:38:06.549Z,100703.66
2019-03-30T14:41:08.541Z,100695.31
2019-03-30T14:44:10.421Z,100694.17
2019-03-30T14:47:12.444Z,100692.55
2019-03-30T14:50:14.320Z,100687.22
2019-03-30T14:53:18.021Z,100680.55
2019-03-30T14:56:20.026Z,100674.58
2019-03-30T14:59:21.994Z,100666.81
2019-03-30T15:02:23.933Z,100666.05
2019-03-30T15:05:25.947Z,100654.36
2019-03-30T15:08:27.895Z,100656.02
2019-03-30T15:11:29.823Z,100643.13
2019-03-30T15:14:31.697Z,100634.91
2019-03-30T15:17:33.581Z,100627.08
2019-03-30T15:20:35.537Z,100627.95
2019-03-30T15:23:37.772Z,100619.85
2019-03-30T15:26:39.659Z,100620.49
2019-03-30T15:29:45.464Z,100622.28
2019-03-30T15:32:46.650Z,100609.52
2019-03-30T15:35:48.760Z,100612.14
2019-03-30T15:38:50.838Z,100609.64
2019-03-30T15:41:52.822Z,100601.05
2019-03-30T15:44:54.738Z,100602.16
2019-03-30T15:47:56.796Z,100602.22
2019-03-30T15:50:59.916Z,100597.97
2019-03-30T15:54:03.561Z,100595.20
2019-03-30T15:57:13.880Z,100594.30
2019-03-30T16:00:11.596Z,100591.68
2019-03-30T16:03:13.498Z,100580.44
2019-03-30T16:06:15.467Z,100574.39
2019-03-30T16:09:17.400Z,100573.41
2019-03-30T16:12:19.310Z,100569.81
2019-03-30T16:15:21.160Z,100567.52
2019-03-30T16:18:23.154Z,100563.48
2019-03-30T16:21:25.067Z,100558.92
2019-03-30T16:24:30.041Z,100550.45
2019-03-30T16:27:30.881Z,100558.67
2019-03-30T16:30:32.828Z,100559.43
2019-03-30T16:33:34.776Z,100550.52
2019-03-30T16:36:36.733Z,100546.29
2019-03-30T16:39:38.823Z,100544.83
2019-03-30T16:42:40.774Z,100540.22
2019-03-30T16:45:42.723Z,100536.67
2019-03-30T16:48:44.653Z,100543.95
2019-03-30T16:51:46.583Z,100538.16
2019-03-30T16:54:48.948Z,100541.86
2019-03-30T16:57:51.787Z,100539.23
2019-03-30T17:00:56.591Z,100535.04
2019-03-30T17:03:57.640Z,100535.94
2019-03-30T17:06:59.606Z,100537.41
2019-03-30T17:10:05.837Z,100536.52
2019-03-30T17:13:07.790Z,100545.77
2019-03-30T17:16:09.872Z,100542.21
2019-03-30T17:19:13.126Z,100545.66
2019-03-30T17:22:15.032Z,100548.78
2019-03-30T17:25:17.058Z,100545.14
2019-03-30T17:28:18.946Z,100547.38
2019-03-30T17:31:20.903Z,100550.45
2019-03-30T17:34:22.784Z,100548.03
2019-03-30T17:37:24.752Z,100551.11
2019-03-30T17:40:26.734Z,100547.92
2019-03-30T17:43:28.673Z,100553.80
2019-03-30T17:46:30.579Z,100560.88
2019-03-30T17:49:33.535Z,100555.42
2019-03-30T17:52:35.477Z,100563.80
2019-03-30T17:55:37.670Z,100558.30
2019-03-30T17:58:39.582Z,100566.03
2019-03-30T18:01:41.541Z,100560.25
2019-03-30T18:04:43.434Z,100565.47
2019-03-30T18:07:45.362Z,100566.02
2019-03-30T18:10:47.514Z,100574.05
2019-03-30T18:13:50.769Z,100571.86
2019-03-30T18:16:52.626Z,100575.47
2019-03-30T18:19:55.677Z,100573.62
2019-03-30T18:22:59.407Z,100567.56
2019-03-30T18:26:01.355Z,100576.46
2019-03-30T18:29:03.352Z,100571.56
2019-03-30T18:32:05.302Z,100577.14
2019-03-30T18:35:07.557Z,100576.08
2019-03-30T18:38:12.721Z,100574.97
2019-03-30T18:41:14.186Z,100575.83
2019-03-30T18:44:17.504Z,100576.68
2019-03-30T18:47:19.486Z,100577.50
2019-03-30T18:50:21.511Z,100575.59
2019-03-30T18:53:23.581Z,100571.72
2019-03-30T18:56:27.932Z,100567.84
2019-03-30T18:59:30.040Z,100570.05
2019-03-30T19:02:32.961Z,100567.29
2019-03-30T19:05:34.889Z,100569.48
2019-03-30T19:08:38.083Z,100569.49
2019-03-30T19:11:41.598Z,100574.17
2019-03-30T19:14:44.509Z,100566.75
2019-03-30T19:17:46.409Z,100569.75
2019-03-30T19:20:48.667Z,100575.52
2019-03-30T19:23:52.967Z,100573.56
2019-03-30T19:26:56.415Z,100568.89
2019-03-30T19:29:59.678Z,100565.55
2019-03-30T19:33:01.697Z,100562.27
2019-03-30T19:36:10.182Z,100563.36
2019-03-30T19:39:12.943Z,100560.05
2019-03-30T19:42:15.949Z,100564.72
2019-03-30T19:45:22.067Z,100564.70
2019-03-30T19:48:25.467Z,100564.09
2019-03-30T19:51:28.597Z,100563.22
2019-03-30T19:54:31.814Z,100556.89
2019-03-30T19:57:36.073Z,100557.43
2019-03-30T20:00:38.921Z,100553.02
2019-03-30T20:03:42.044Z,100554.92
2019-03-30T20:06:45.876Z,100553.48
2019-03-30T20:09:53.744Z,100558.64
2019-03-30T20:12:58.117Z,100558.54
2019-03-30T20:16:02.145Z,100556.81
2019-03-30T20:19:12.213Z,100567.48
2019-03-30T20:22:08.110Z,100562.26
2019-03-30T20:25:12.521Z,100569.66
2019-03-30T20:28:15.900Z,100569.63
2019-03-30T20:31:18.587Z,100561.92
2019-03-30T20:34:20.985Z,100565.22
2019-03-30T20:37:24.683Z,100563.23
2019-03-30T20:40:26.987Z,100559.34
2019-03-30T20:43:29.020Z,100566.71
2019-03-30T20:46:33.025Z,100557.06
2019-03-30T20:49:36.762Z,100566.06
2019-03-30T20:52:39.829Z,100565.47
2019-03-30T20:55:42.274Z,100564.86
2019-03-30T20:58:44.918Z,100558.53
2019-03-30T21:01:49.836Z,100563.11
2019-03-30T21:04:52.079Z,100560.67
2019-03-30T21:07:55.102Z,100557.93
2019-03-30T21:10:57.486Z,100556.25
2019-03-30T21:13:59.914Z,100556.23
2019-03-30T21:17:02.578Z,100553.98
2019-03-30T21:20:06.833Z,100547.31
2019-03-30T21:23:09.902Z,100539.55
2019-03-30T21:26:14.302Z,100546.59
2019-03-30T21:29:16.257Z,100546.19
2019-03-30T21:32:18.208Z,100543.29
2019-03-30T21:35:20.278Z,100542.23
2019-03-30T21:38:22.182Z,100547.53
2019-03-30T21:41:24.461Z,100541.09
2019-03-30T21:44:26.749Z,100545.12
2019-03-30T21:47:29.186Z,100538.74
2019-03-30T21:50:31.058Z,100539.45
2019-03-30T21:53:34.078Z,100544.48
2019-03-30T21:56:36.018Z,100541.89
2019-03-30T21:59:39.788Z,100548.84
2019-03-30T22:02:41.653Z,100543.46
2019-03-30T22:05:43.632Z,100542.86
2019-03-30T22:08:46.895Z,100536.48
2019-03-30T22:11:48.866Z,100539.17
2019-03-30T22:14:50.811Z,100541.03
2019-03-30T22:17:52.737Z,100534.98
2019-03-30T22:20:54.616Z,100532.37
2019-03-30T22:23:56.600Z,100537.70
2019-03-30T22:26:58.495Z,100533.45
2019-03-30T22:30:00.438Z,100529.53
2019-03-30T22:33:02.343Z,100530.42
2019-03-30T22:36:04.431Z,100528.03
2019-03-30T22:39:06.602Z,100528.42
2019-03-30T22:42:08.687Z,100526.39
2019-03-30T22:45:11.133Z,100530.59
2019-03-30T22:48:13.054Z,100530.66
2019-03-30T22:51:15.034Z,100529.92
2019-03-30T22:54:16.985Z,100536.10
2019-03-30T22:57:18.873Z,100529.59
2019-03-30T23:00:41.416Z,100532.60
2019-03-30T23:03:45.242Z,100525.84
2019-03-30T23:06:47.165Z,100527.74
2019-03-30T23:09:49.063Z,100527.91
2019-03-30T23:12:52.281Z,100527.57
2019-03-30T23:18:55.656Z,100526.75
2019-03-30T23:21:57.548Z,100524.99
2019-03-30T23:24:59.508Z,100526.41
2019-03-30T23:28:01.416Z,100516.97
2019-03-30T23:31:03.379Z,100518.34
2019-03-30T23:34:05.217Z,100519.91
2019-03-30T23:37:07.155Z,100523.28
2019-03-30T23:40:08.996Z,100521.58
2019-03-30T23:43:10.860Z,100509.55
2019-03-30T23:46:12.890Z,100513.77
2019-03-30T23:49:14.824Z,100515.80
2019-03-30T23:52:16.701Z,100508.80
2019-03-30T23:55:18.591Z,100505.19
2019-03-30T23:58:20.456Z,100499.45
